Airfield :
LOGIN :

Register | Disclaimer

   EN    FR    IT 

 










Legend :    VFR   Marginal VFR   IFR   Intensive IFR   Very Intensive IFR
Visi :
Ceiling :
>= 8 km
>= 3000ft
5 to 8 km
1000 to 3000 ft
1500m to 5 km
500 to 1000 ft
800 to 1500m
200 to 500 ft
< 800m
< 200 ft
Symbols :   Thunderstorms  Fog  Heavy snow  Heavy precipitations  Wind > 20 kt
SIGMETs :     Misc.  Thunderstorms  Icing  Turbulence  Mountain Waves  Volcanic Ashes







- Airport Elevation : 138 ft
- IATA code : BIO


LEBB - Bilbao

CURRENT METAR :
  • 201430Z 03004KT 340V070 9999 SCT018 BKN024 19/15 Q1017 NOSIG

EXPIRED METARs :
  • 201400Z 28005KT 230V320 9999 SCT016 BKN022 18/16 Q1018 NOSIG
  • 201330Z 30005KT 260V340 9999 SCT020 BKN032 19/15 Q1017 NOSIG
  • 201300Z 29004KT 230V330 9999 SCT020 BKN032 19/17 Q1018 NOSIG
  • 201230Z 30003KT 250V330 9999 FEW020 SCT030 BKN040 18/16 Q1018 NOSIG
  • 201200Z VRB02KT 9999 FEW013 SCT027 BKN035 18/16 Q1018 NOSIG

TAF TAF LEBB
Valid from the 20 at 12:00 until the 21 at 12:00 UTC


201100Z 2012/2112 35009KT 9999 SCT015 BKN030 TX21/2014Z TN13/2106Z
TEMPO 2017/2106 3000 RA SHRA BKN014 SCT030TCU
No reported NOTAMs for that airfield.
1 SIGMET reported for the Madrid FIR (LECM) :
 
Embedded thunderstorms
LECM SIGMET 1 VALID 201433/201600 LEVA
LECM MADRID FIR/UIR EMBD TS OBS AT 1433Z WI N4220 W009 - N4110 W00340 - N4240 W00110 - N4340 W00520 - N4220 W009 TOP FL300 MOV NE 15KT NC=



MET'MAP, your aeronautical weather chart ! - Copyright ORBIFLY December 2007 - Disclaimer

ORBIFLY MET'MAP TEAM :

Programming & Development : Alexandra Zaïnal
Concept & Development : Baudouin d'Aumeries
Co-Development & Prog : Marc-Olivier Méhu
Technical & hardware support : Manuel Goepfert

Contact : metmap@orbifly.com




SOURCES & CREDITS :

   NOAA